TimeCST,TemperatureF,Dew PointF,Humidity,Sea Level PressureIn,VisibilityMPH,Wind Direction,Wind SpeedMPH,Gust SpeedMPH,PrecipitationIn,Events,Conditions,WindDirDegrees,DateUTC
12:53 AM,51.1,39.0,63,29.88,10.0,SW,6.9,-,N/A,,Clear,230,2009-01-08 06:53:00
1:53 AM,52.0,37.9,59,29.89,10.0,WSW,6.9,-,N/A,,Clear,250,2009-01-08 07:53:00
2:53 AM,52.0,37.0,57,29.90,10.0,West,4.6,-,N/A,,Clear,260,2009-01-08 08:53:00
3:53 AM,52.0,37.9,59,29.91,10.0,WSW,5.8,-,N/A,,Clear,250,2009-01-08 09:53:00
4:53 AM,52.0,39.9,63,29.91,10.0,West,4.6,-,N/A,,Clear,260,2009-01-08 10:53:00
5:53 AM,51.1,41.0,68,29.93,10.0,WSW,5.8,-,N/A,,Clear,250,2009-01-08 11:53:00
6:53 AM,46.9,41.0,80,29.95,10.0,WSW,5.8,-,N/A,,Clear,240,2009-01-08 12:53:00
7:53 AM,51.1,41.0,68,29.97,10.0,Calm,Calm,-,N/A,,Clear,0,2009-01-08 13:53:00
8:53 AM,55.0,42.1,62,30.00,10.0,West,5.8,-,N/A,,Clear,280,2009-01-08 14:53:00
9:53 AM,60.1,44.1,55,30.02,10.0,WNW,5.8,-,N/A,,Clear,300,2009-01-08 15:53:00
10:53 AM,66.0,45.0,47,30.02,10.0,North,-9999.0,-,N/A,,Clear,0,2009-01-08 16:53:00
11:53 AM,68.0,39.9,36,29.99,10.0,NNW,5.8,-,N/A,,Clear,330,2009-01-08 17:53:00
12:53 PM,66.9,41.0,39,29.98,10.0,West,3.5,-,N/A,,Clear,280,2009-01-08 18:53:00
1:53 PM,68.0,42.1,39,29.97,10.0,SW,4.6,-,N/A,,Clear,220,2009-01-08 19:53:00
2:53 PM,70.0,41.0,35,29.97,10.0,Calm,Calm,-,N/A,,Clear,0,2009-01-08 20:53:00
3:53 PM,70.0,39.9,33,29.98,8.0,Calm,Calm,-,N/A,,Clear,0,2009-01-08 21:53:00
4:53 PM,69.1,43.0,39,29.99,9.0,Calm,Calm,-,N/A,,Clear,0,2009-01-08 22:53:00
5:53 PM,64.0,39.9,41,30.00,10.0,East,6.9,-,N/A,,Clear,80,2009-01-08 23:53:00
6:53 PM,60.1,39.9,47,30.01,10.0,ENE,5.8,-,N/A,,Clear,70,2009-01-09 00:53:00
7:53 PM,55.0,41.0,59,30.03,10.0,East,5.8,-,N/A,,Clear,100,2009-01-09 01:53:00
8:53 PM,55.9,39.0,53,30.04,10.0,East,4.6,-,N/A,,Clear,80,2009-01-09 02:53:00
9:53 PM,52.0,39.9,63,30.04,10.0,SE,4.6,-,N/A,,Clear,140,2009-01-09 03:53:00
10:53 PM,48.0,39.9,74,30.04,10.0,ESE,4.6,-,N/A,,Clear,120,2009-01-09 04:53:00
11:53 PM,48.9,39.9,71,30.04,10.0,SE,4.6,-,N/A,,Clear,130,2009-01-09 05:53:00